Time;durP1;ratioP1;P1;durP2;ratioP2;P2;SDS_P1;SDS_P2;PMS_P1;PMS_P2;Temp;Humidity;BMP_temperature;BMP_pressure;BME280_temperature;BME280_humidity;BME280_pressure;Samples;Min_cycle;Max_cycle;Signal;HPM_P1;HPM_P2
2023/12/19 00:01:00;;;;;;;6.27;4.37;;;1.60;99.90;;;;;;5049958;28;20207;-83
2023/12/19 00:03:27;;;;;;;6.43;4.70;;;1.70;99.90;;;;;;5047236;28;20201;-84
2023/12/19 00:05:54;;;;;;;6.20;4.20;;;1.80;99.90;;;;;;5043038;28;20205;-84
2023/12/19 00:08:23;;;;;;;6.07;4.07;;;1.90;99.90;;;;;;5047743;28;20197;-83
2023/12/19 00:10:50;;;;;;;5.67;4.20;;;1.90;99.90;;;;;;5048025;28;20651;-84
2023/12/19 00:13:16;;;;;;;5.97;4.50;;;1.70;99.90;;;;;;5029997;28;20690;-86
2023/12/19 00:15:43;;;;;;;5.97;3.93;;;1.60;99.90;;;;;;5041474;28;20224;-84
2023/12/19 00:18:12;;;;;;;6.20;4.03;;;1.60;99.90;;;;;;5043755;28;20201;-84
2023/12/19 00:20:38;;;;;;;6.83;4.23;;;1.60;99.90;;;;;;5044113;28;20197;-84
2023/12/19 00:23:05;;;;;;;6.17;3.93;;;1.60;99.90;;;;;;5046300;28;20202;-84
2023/12/19 00:25:32;;;;;;;5.87;4.13;;;1.60;99.90;;;;;;5015520;28;20207;-84
2023/12/19 00:27:59;;;;;;;7.23;4.27;;;1.50;99.90;;;;;;5047488;28;20205;-84
2023/12/19 00:30:27;;;;;;;8.07;4.07;;;1.40;99.90;;;;;;5049204;28;20279;-84
2023/12/19 00:32:54;;;;;;;6.90;3.93;;;1.30;99.90;;;;;;5048178;28;20205;-84
2023/12/19 00:35:22;;;;;;;6.17;4.13;;;1.30;99.90;;;;;;5041173;28;20194;-84
2023/12/19 00:37:49;;;;;;;5.77;4.27;;;1.50;99.90;;;;;;5029080;28;20202;-84
2023/12/19 00:40:16;;;;;;;6.07;4.30;;;1.50;99.90;;;;;;5049447;28;20202;-84
2023/12/19 00:42:43;;;;;;;5.83;3.80;;;1.30;99.90;;;;;;5049572;28;20560;-84
2023/12/19 00:45:11;;;;;;;7.00;3.83;;;1.20;99.90;;;;;;5045657;28;20209;-85
2023/12/19 00:47:38;;;;;;;5.27;3.20;;;1.20;99.90;;;;;;5048047;28;20654;-84
2023/12/19 00:50:07;;;;;;;4.20;3.20;;;1.20;99.90;;;;;;5048965;28;20560;-84
2023/12/19 00:52:36;;;;;;;4.50;3.33;;;1.30;99.90;;;;;;5048394;28;20280;-84
2023/12/19 00:55:03;;;;;;;5.47;3.50;;;1.40;99.90;;;;;;5043599;28;20202;-84
2023/12/19 00:57:30;;;;;;;5.40;3.20;;;1.50;99.90;;;;;;5046773;28;20219;-84
2023/12/19 00:59:56;;;;;;;4.43;3.23;;;1.80;99.90;;;;;;5047205;28;20194;-85
2023/12/19 01:02:24;;;;;;;5.70;3.60;;;1.80;99.90;;;;;;5046778;28;20194;-84
2023/12/19 01:04:51;;;;;;;4.53;3.03;;;1.70;99.90;;;;;;5049703;28;20190;-85
2023/12/19 01:07:18;;;;;;;4.03;2.80;;;1.60;99.90;;;;;;5047561;28;20202;-85
2023/12/19 01:09:46;;;;;;;4.53;3.27;;;1.60;99.90;;;;;;5039156;28;20199;-85
2023/12/19 01:12:13;;;;;;;4.33;3.10;;;1.60;99.90;;;;;;5045740;28;20208;-85
2023/12/19 01:14:40;;;;;;;4.03;3.43;;;1.60;99.90;;;;;;5040804;28;20241;-85
2023/12/19 01:17:07;;;;;;;5.43;3.17;;;1.50;99.90;;;;;;5046989;28;20238;-84
2023/12/19 01:19:34;;;;;;;3.90;2.90;;;1.50;99.90;;;;;;5041790;28;20202;-85
2023/12/19 01:22:02;;;;;;;5.17;3.30;;;1.50;99.90;;;;;;5046636;28;20202;-85
2023/12/19 01:24:29;;;;;;;4.70;3.23;;;1.50;99.90;;;;;;5048016;28;20723;-85
2023/12/19 01:26:58;;;;;;;3.30;2.80;;;1.50;99.90;;;;;;5048326;28;20220;-85
2023/12/19 01:29:25;;;;;;;3.90;2.87;;;1.60;99.90;;;;;;5046631;28;20201;-84
2023/12/19 01:31:53;;;;;;;3.63;2.77;;;1.70;99.90;;;;;;5046797;28;20213;-85
2023/12/19 01:34:26;;;;;;;6.37;2.87;;;1.80;99.90;;;;;;5044571;28;20276;-85
2023/12/19 01:36:54;;;;;;;3.93;2.67;;;1.70;99.90;;;;;;5044086;28;20265;-84
2023/12/19 01:39:21;;;;;;;3.90;2.80;;;1.70;99.90;;;;;;5046548;28;20253;-85
2023/12/19 01:41:48;;;;;;;3.37;2.70;;;1.70;99.90;;;;;;5043243;28;20201;-85
2023/12/19 01:44:20;;;;;;;3.73;3.00;;;1.60;99.90;;;;;;5047371;28;20197;-85
2023/12/19 01:46:47;;;;;;;3.43;2.60;;;1.60;99.90;;;;;;5046492;28;20194;-84
2023/12/19 01:49:14;;;;;;;3.60;2.60;;;1.60;99.90;;;;;;5050086;28;20194;-84
2023/12/19 01:51:41;;;;;;;3.27;2.50;;;1.60;99.90;;;;;;5052100;28;20565;-85
2023/12/19 01:54:11;;;;;;;3.83;2.90;;;1.60;99.90;;;;;;5047054;28;20190;-85
2023/12/19 01:56:39;;;;;;;4.37;2.70;;;1.60;99.90;;;;;;5042523;28;20213;-85
2023/12/19 01:59:06;;;;;;;3.60;2.60;;;1.80;99.90;;;;;;5048356;28;20558;-85
2023/12/19 02:04:11;;;;;;;3.80;2.73;;;1.90;99.90;;;;;;5958854;22;20239;-84
2023/12/19 02:06:37;;;;;;;3.17;2.83;;;1.80;99.90;;;;;;5087216;28;20545;-84
2023/12/19 02:09:06;;;;;;;3.90;2.50;;;1.70;99.90;;;;;;5078968;28;20207;-84
2023/12/19 02:11:33;;;;;;;3.40;2.53;;;1.70;99.90;;;;;;5087879;28;20193;-85
2023/12/19 02:14:00;;;;;;;3.57;3.00;;;1.70;99.90;;;;;;5089440;28;20667;-86
2023/12/19 02:16:30;;;;;;;3.53;2.67;;;1.70;99.90;;;;;;5071535;28;20594;-84
2023/12/19 02:19:04;;;;;;;2.90;2.60;;;1.90;99.90;;;;;;5083497;28;20192;-84
2023/12/19 02:21:32;;;;;;;3.50;2.60;;;1.90;99.90;;;;;;5092574;28;20211;-84
2023/12/19 02:24:01;;;;;;;4.93;2.60;;;1.90;99.90;;;;;;5089056;28;20204;-84
2023/12/19 02:26:28;;;;;;;4.03;2.60;;;1.90;99.90;;;;;;5083646;28;20205;-84
2023/12/19 02:28:55;;;;;;;3.20;2.17;;;1.80;99.90;;;;;;5089720;28;20193;-84
2023/12/19 02:31:22;;;;;;;3.13;2.50;;;1.70;99.90;;;;;;5068131;28;20192;-84
2023/12/19 02:33:49;;;;;;;3.93;2.43;;;1.60;99.90;;;;;;5090432;28;20197;-85
2023/12/19 02:36:16;;;;;;;3.67;2.47;;;1.60;99.90;;;;;;5093912;28;20691;-85
2023/12/19 02:38:43;;;;;;;2.47;2.27;;;1.60;99.90;;;;;;5084695;28;20211;-84
2023/12/19 02:41:12;;;;;;;3.30;2.50;;;1.70;99.90;;;;;;5090387;28;20189;-85
2023/12/19 02:43:39;;;;;;;3.40;2.50;;;1.80;99.90;;;;;;5083645;28;20548;-85
2023/12/19 02:46:06;;;;;;;2.73;2.30;;;1.70;99.60;;;;;;5084773;28;20193;-84
2023/12/19 02:48:34;;;;;;;4.27;2.40;;;1.60;99.80;;;;;;5089402;28;20556;-85
2023/12/19 02:51:01;;;;;;;2.80;2.30;;;1.50;99.90;;;;;;5066900;28;20703;-84
2023/12/19 02:53:29;;;;;;;3.93;2.73;;;1.40;99.90;;;;;;5090418;28;20246;-85
2023/12/19 02:55:56;;;;;;;3.50;2.30;;;1.30;99.90;;;;;;5087088;28;20197;-84
2023/12/19 02:58:24;;;;;;;3.50;2.90;;;1.30;99.90;;;;;;5088799;28;20652;-85
2023/12/19 03:00:51;;;;;;;3.33;2.60;;;1.30;99.90;;;;;;5089701;28;20197;-84
2023/12/19 03:03:17;;;;;;;3.70;2.83;;;1.40;99.90;;;;;;5090278;28;20193;-86
2023/12/19 03:05:44;;;;;;;3.50;2.40;;;1.30;99.90;;;;;;5093688;28;20232;-84
2023/12/19 03:08:11;;;;;;;3.33;2.30;;;1.40;99.90;;;;;;5097419;28;20209;-86
2023/12/19 03:10:38;;;;;;;2.60;2.10;;;1.40;99.90;;;;;;5098390;28;20558;-84
2023/12/19 03:13:05;;;;;;;3.27;2.60;;;1.30;99.90;;;;;;5094561;28;20204;-85
2023/12/19 03:15:33;;;;;;;3.17;2.40;;;1.20;99.90;;;;;;5088021;28;20199;-84
2023/12/19 03:18:00;;;;;;;2.63;2.27;;;1.20;99.90;;;;;;5087084;28;20221;-85
2023/12/19 03:20:27;;;;;;;4.17;2.80;;;1.20;99.90;;;;;;5092142;28;20645;-84
2023/12/19 03:22:54;;;;;;;2.90;2.60;;;1.20;99.90;;;;;;5094176;28;20203;-85
2023/12/19 03:25:21;;;;;;;3.80;2.23;;;1.20;99.90;;;;;;5094041;28;20567;-84
2023/12/19 03:27:48;;;;;;;3.67;2.90;;;1.20;99.90;;;;;;5078430;28;20200;-85
2023/12/19 03:30:15;;;;;;;3.17;2.47;;;1.10;99.90;;;;;;5087327;28;20201;-84
2023/12/19 03:32:43;;;;;;;2.97;2.10;;;1.10;99.90;;;;;;5092251;28;20199;-85
2023/12/19 03:35:12;;;;;;;3.50;2.17;;;1.20;99.90;;;;;;5092966;28;20640;-84
2023/12/19 03:37:39;;;;;;;3.50;2.30;;;1.20;99.90;;;;;;5087674;28;20239;-84
2023/12/19 03:40:07;;;;;;;3.37;2.33;;;1.20;99.90;;;;;;5095912;28;20239;-84
2023/12/19 03:42:33;;;;;;;3.00;2.30;;;1.40;99.90;;;;;;5070034;28;20607;-84
2023/12/19 03:45:00;;;;;;;2.60;2.40;;;1.50;99.80;;;;;;5088873;28;20683;-84
2023/12/19 03:47:27;;;;;;;2.80;2.07;;;1.40;99.50;;;;;;5088065;28;20212;-84
2023/12/19 03:49:55;;;;;;;3.27;2.10;;;1.30;99.50;;;;;;5097277;28;20644;-84
2023/12/19 03:52:23;;;;;;;4.30;2.20;;;1.20;99.40;;;;;;5091895;28;20197;-84
2023/12/19 03:54:50;;;;;;;3.80;2.37;;;1.20;99.50;;;;;;5093640;28;20231;-84
2023/12/19 03:57:17;;;;;;;5.30;2.73;;;1.10;99.40;;;;;;5092384;28;20231;-85
2023/12/19 03:59:44;;;;;;;3.90;2.30;;;1.00;99.40;;;;;;5091882;28;20192;-84
2023/12/19 04:02:11;;;;;;;3.30;2.20;;;0.80;99.90;;;;;;5092171;28;20208;-84
2023/12/19 04:04:38;;;;;;;2.90;2.27;;;0.80;99.90;;;;;;5082916;28;20232;-84
2023/12/19 04:07:06;;;;;;;2.40;2.00;;;0.90;99.90;;;;;;5091760;28;20210;-84
2023/12/19 04:09:33;;;;;;;2.83;2.40;;;0.90;99.90;;;;;;5089964;28;20207;-84
2023/12/19 04:12:02;;;;;;;2.40;2.00;;;0.80;99.90;;;;;;5089711;28;20635;-84
2023/12/19 04:14:28;;;;;;;3.10;2.43;;;0.60;99.90;;;;;;5089530;28;20208;-84
2023/12/19 04:16:55;;;;;;;3.43;2.30;;;0.50;99.90;;;;;;5091587;28;20224;-85
2023/12/19 04:19:22;;;;;;;3.90;2.50;;;0.50;99.90;;;;;;5090327;28;21374;-85
2023/12/19 04:21:49;;;;;;;3.03;2.17;;;0.50;99.90;;;;;;5083467;28;20227;-84
2023/12/19 04:24:17;;;;;;;3.00;2.40;;;0.60;99.90;;;;;;5092908;28;20197;-85
2023/12/19 04:26:46;;;;;;;3.00;2.30;;;0.60;99.90;;;;;;5081971;28;20208;-84
2023/12/19 04:29:13;;;;;;;3.10;2.37;;;0.60;99.90;;;;;;5089252;28;20644;-85
2023/12/19 04:31:40;;;;;;;2.13;1.90;;;0.70;99.90;;;;;;5084773;28;20657;-84
2023/12/19 04:34:07;;;;;;;3.23;2.37;;;0.70;99.90;;;;;;5078055;28;20216;-84
2023/12/19 04:36:34;;;;;;;2.93;2.50;;;0.70;99.90;;;;;;5086483;28;20192;-84
2023/12/19 04:39:01;;;;;;;2.43;2.10;;;0.60;99.90;;;;;;5090653;28;20188;-84
2023/12/19 04:41:29;;;;;;;2.70;2.20;;;0.50;99.90;;;;;;5091790;28;20282;-84
2023/12/19 04:43:56;;;;;;;2.53;2.10;;;0.50;99.90;;;;;;5087208;28;20200;-84
2023/12/19 04:46:23;;;;;;;3.13;2.30;;;0.70;99.90;;;;;;5086719;28;20204;-84
2023/12/19 04:48:50;;;;;;;2.50;2.00;;;0.70;99.90;;;;;;5086537;28;20231;-84
2023/12/19 04:51:22;;;;;;;2.70;2.10;;;0.70;99.90;;;;;;5086208;28;20575;-84
2023/12/19 04:53:49;;;;;;;2.37;2.07;;;0.60;99.90;;;;;;5087289;28;20279;-84
2023/12/19 04:56:17;;;;;;;2.83;2.37;;;0.60;99.90;;;;;;5087715;28;20188;-84
2023/12/19 04:58:46;;;;;;;4.57;1.80;;;0.40;99.90;;;;;;5090846;28;20261;-84
2023/12/19 05:01:13;;;;;;;2.73;2.23;;;0.40;99.90;;;;;;5090814;28;20612;-85
2023/12/19 05:03:41;;;;;;;2.70;2.00;;;0.70;99.90;;;;;;5088395;28;20199;-84
2023/12/19 05:06:08;;;;;;;2.77;2.13;;;0.90;99.90;;;;;;5088179;28;20254;-84
2023/12/19 05:08:35;;;;;;;2.73;1.83;;;1.00;99.90;;;;;;5090461;28;20193;-84
2023/12/19 05:11:02;;;;;;;2.57;2.00;;;0.90;99.40;;;;;;5091248;28;20203;-84
2023/12/19 05:13:29;;;;;;;2.37;2.07;;;0.90;99.50;;;;;;5088120;28;20197;-84
2023/12/19 05:15:57;;;;;;;2.73;1.93;;;0.90;99.50;;;;;;5071524;28;20189;-85
2023/12/19 05:18:24;;;;;;;2.30;1.90;;;0.70;99.70;;;;;;5087704;28;20221;-84
2023/12/19 05:20:51;;;;;;;3.47;2.13;;;0.60;99.90;;;;;;5085784;28;20648;-84
2023/12/19 05:23:17;;;;;;;2.47;2.10;;;0.50;99.90;;;;;;5085582;28;20204;-84
2023/12/19 05:25:44;;;;;;;3.30;2.20;;;0.50;99.90;;;;;;5083604;28;20207;-84
2023/12/19 05:28:11;;;;;;;2.47;1.90;;;0.50;99.90;;;;;;5087698;28;20200;-84
2023/12/19 05:30:38;;;;;;;2.00;1.80;;;0.80;99.90;;;;;;5086639;28;20200;-90
2023/12/19 05:33:07;;;;;;;6.20;2.53;;;0.80;99.90;;;;;;5088570;28;20196;-83
2023/12/19 05:35:33;;;;;;;3.23;2.30;;;0.70;99.90;;;;;;5088321;28;20232;-84
2023/12/19 05:38:04;;;;;;;3.03;2.30;;;0.60;99.90;;;;;;5068271;28;20227;-84
2023/12/19 05:40:31;;;;;;;2.50;2.00;;;0.70;99.90;;;;;;5087625;28;20222;-84
2023/12/19 05:43:01;;;;;;;2.80;2.17;;;0.70;99.90;;;;;;5090825;28;20291;-82
2023/12/19 05:45:28;;;;;;;6.83;2.30;;;0.70;99.90;;;;;;5086418;28;20303;-84
2023/12/19 05:47:55;;;;;;;2.90;2.27;;;0.70;99.90;;;;;;5084486;28;20677;-83
2023/12/19 05:50:23;;;;;;;4.87;2.43;;;1.30;99.90;;;;;;5086211;28;20197;-83
2023/12/19 05:52:50;;;;;;;33.27;19.33;;;2.10;99.90;;;;;;5077748;28;20192;-86
2023/12/19 05:55:17;;;;;;;19.40;12.30;;;2.80;99.90;;;;;;5088758;28;20209;-84
2023/12/19 05:57:44;;;;;;;5.37;3.47;;;3.10;99.20;;;;;;5085224;28;20212;-83
2023/12/19 06:00:12;;;;;;;2.30;2.10;;;3.00;95.80;;;;;;5087072;28;20223;-83
2023/12/19 06:02:39;;;;;;;3.07;1.90;;;2.30;95.50;;;;;;5090313;28;20192;-83
2023/12/19 06:05:07;;;;;;;42.83;25.83;;;1.90;96.50;;;;;;5087249;28;20217;-83
2023/12/19 06:07:37;;;;;;;5.00;3.43;;;1.80;99.10;;;;;;5086260;28;20205;-83
2023/12/19 06:10:08;;;;;;;3.00;2.00;;;1.80;98.30;;;;;;5082663;28;20193;-84
2023/12/19 06:12:35;;;;;;;3.87;2.50;;;1.60;97.90;;;;;;5085873;28;20228;-83
2023/12/19 06:15:08;;;;;;;11.17;6.87;;;1.50;98.10;;;;;;5087085;28;20668;-84
2023/12/19 06:17:35;;;;;;;10.80;7.63;;;1.60;99.50;;;;;;5084187;28;20313;-83
2023/12/19 06:20:02;;;;;;;4.43;2.10;;;1.70;98.60;;;;;;5077915;28;20190;-83
2023/12/19 06:22:29;;;;;;;2.93;2.40;;;1.70;97.70;;;;;;5087583;28;20215;-84
2023/12/19 06:24:58;;;;;;;11.20;7.23;;;1.40;97.80;;;;;;5083397;28;20564;-83
2023/12/19 06:27:27;;;;;;;38.50;22.77;;;1.10;98.40;;;;;;5082674;28;20201;-87
2023/12/19 06:29:55;;;;;;;2.33;1.97;;;1.40;99.50;;;;;;5087321;28;20246;-84
2023/12/19 06:32:21;;;;;;;3.37;2.90;;;1.30;98.40;;;;;;5089128;28;20189;-83
2023/12/19 06:34:48;;;;;;;8.23;5.27;;;1.10;98.60;;;;;;5090082;28;20549;-83
2023/12/19 06:37:15;;;;;;;19.87;11.30;;;1.20;99.40;;;;;;5093025;28;20207;-84
2023/12/19 06:39:43;;;;;;;13.57;8.00;;;1.90;99.60;;;;;;5091504;28;20202;-83
2023/12/19 06:42:11;;;;;;;2.43;1.90;;;2.60;97.20;;;;;;5088591;28;20204;-84
2023/12/19 06:44:38;;;;;;;1.93;1.60;;;2.80;94.60;;;;;;5090674;28;20212;-83
2023/12/19 06:47:05;;;;;;;28.27;17.63;;;2.20;95.00;;;;;;5090824;28;20199;-84
2023/12/19 06:49:32;;;;;;;23.20;14.40;;;1.80;97.00;;;;;;5089520;28;20215;-84
2023/12/19 06:51:59;;;;;;;16.03;10.57;;;2.40;97.20;;;;;;5074559;28;20192;-84
2023/12/19 06:54:26;;;;;;;14.53;8.80;;;3.00;95.40;;;;;;5089421;28;20652;-84
2023/12/19 06:56:53;;;;;;;11.53;5.97;;;3.00;94.60;;;;;;5089277;28;20254;-83
2023/12/19 06:59:21;;;;;;;14.43;8.70;;;3.20;94.00;;;;;;5088916;28;20213;-84
2023/12/19 07:01:48;;;;;;;9.57;5.83;;;3.30;94.50;;;;;;5088364;28;20299;-83
2023/12/19 07:04:19;;;;;;;3.63;2.70;;;3.40;94.00;;;;;;5098864;28;20281;-85
2023/12/19 07:06:47;;;;;;;3.70;2.87;;;3.10;93.10;;;;;;5093309;28;20193;-83
2023/12/19 07:09:14;;;;;;;2.20;1.93;;;2.80;94.00;;;;;;5090070;28;20192;-83
2023/12/19 07:11:41;;;;;;;3.00;2.03;;;2.30;94.50;;;;;;5089595;28;20192;-84
2023/12/19 07:14:08;;;;;;;2.33;1.93;;;2.00;95.20;;;;;;5087865;28;20192;-84
2023/12/19 07:16:37;;;;;;;5.10;2.30;;;1.60;95.80;;;;;;5084917;28;20217;-83
2023/12/19 07:19:04;;;;;;;4.17;2.93;;;1.40;96.90;;;;;;5072768;28;20221;-86
2023/12/19 07:21:32;;;;;;;4.67;2.73;;;1.50;99.00;;;;;;5086859;28;20222;-86
2023/12/19 07:23:59;;;;;;;3.00;2.20;;;2.10;98.20;;;;;;5090162;28;20201;-92
2023/12/19 07:26:27;;;;;;;3.80;2.60;;;2.10;96.10;;;;;;5095855;28;20205;-91
2023/12/19 07:28:57;;;;;;;6.57;3.20;;;1.90;97.00;;;;;;5092068;28;20201;-91
2023/12/19 07:31:24;;;;;;;7.37;2.40;;;2.40;98.30;;;;;;5093590;28;20200;-87
2023/12/19 07:33:56;;;;;;;3.50;2.40;;;2.50;96.70;;;;;;5074219;28;20198;-87
2023/12/19 07:36:23;;;;;;;3.37;2.13;;;2.30;95.30;;;;;;5084390;28;20200;-87
2023/12/19 07:38:50;;;;;;;6.83;2.57;;;1.80;96.10;;;;;;5090165;28;20248;-87
2023/12/19 07:41:17;;;;;;;4.57;2.67;;;1.70;98.50;;;;;;5089017;28;20200;-89
2023/12/19 07:43:44;;;;;;;8.60;5.93;;;2.20;98.70;;;;;;5076419;28;20576;-87
2023/12/19 07:46:11;;;;;;;6.57;3.07;;;2.60;98.30;;;;;;5094728;28;20191;-86
2023/12/19 07:48:38;;;;;;;4.40;2.73;;;2.90;97.40;;;;;;5091690;28;20216;-86
2023/12/19 07:51:07;;;;;;;4.40;2.70;;;2.50;95.20;;;;;;5092945;28;20203;-86
2023/12/19 07:53:35;;;;;;;5.13;3.23;;;2.30;96.20;;;;;;5067227;28;20258;-86
2023/12/19 07:56:04;;;;;;;4.17;2.70;;;2.40;98.30;;;;;;5085628;28;20199;-86
2023/12/19 07:58:30;;;;;;;5.40;2.80;;;2.80;98.20;;;;;;5087421;28;20228;-87
2023/12/19 08:00:58;;;;;;;5.03;2.50;;;3.10;98.50;;;;;;5090554;28;20196;-86
2023/12/19 08:03:26;;;;;;;3.73;2.73;;;3.10;95.40;;;;;;5091149;28;20291;-87
2023/12/19 08:05:56;;;;;;;2.77;2.30;;;2.80;95.00;;;;;;5092878;28;20200;-86
2023/12/19 08:08:25;;;;;;;4.83;2.60;;;2.60;95.90;;;;;;5091710;28;20228;-88
2023/12/19 08:10:52;;;;;;;4.47;2.60;;;2.40;96.20;;;;;;5091235;28;20199;-89
2023/12/19 08:13:20;;;;;;;4.87;2.13;;;2.50;97.80;;;;;;5091660;28;20192;-86
2023/12/19 08:15:48;;;;;;;5.00;2.27;;;2.80;98.50;;;;;;5089410;28;20256;-90
2023/12/19 08:18:15;;;;;;;4.47;2.17;;;3.20;97.50;;;;;;5089057;28;20277;-90
2023/12/19 08:20:42;;;;;;;4.03;2.60;;;3.30;96.50;;;;;;5087268;28;20207;-90
2023/12/19 08:23:09;;;;;;;3.23;2.00;;;3.50;96.90;;;;;;5088319;28;20262;-89
2023/12/19 08:25:38;;;;;;;2.97;2.10;;;3.70;95.30;;;;;;5086464;28;20197;-91
2023/12/19 08:28:05;;;;;;;7.63;5.03;;;3.60;94.50;;;;;;5089486;28;20197;-90
2023/12/19 08:30:33;;;;;;;3.07;2.50;;;3.80;95.40;;;;;;5058655;28;20208;-90
2023/12/19 08:33:01;;;;;;;3.73;2.50;;;3.90;94.00;;;;;;5086374;28;20197;-89
2023/12/19 08:35:29;;;;;;;16.03;10.30;;;3.70;93.80;;;;;;5086736;28;20239;-89
2023/12/19 08:37:56;;;;;;;12.80;9.17;;;3.70;95.80;;;;;;5086784;28;20205;-90
2023/12/19 08:40:24;;;;;;;5.53;4.07;;;4.10;94.90;;;;;;5086544;28;20195;-91
2023/12/19 08:42:54;;;;;;;3.67;2.70;;;4.30;94.00;;;;;;5087805;28;20196;-90
2023/12/19 08:45:22;;;;;;;3.67;2.50;;;4.30;93.60;;;;;;5089832;28;20216;-89
2023/12/19 08:47:50;;;;;;;3.53;2.30;;;4.20;93.50;;;;;;5085088;28;20189;-89
2023/12/19 08:50:17;;;;;;;12.07;7.60;;;4.20;94.20;;;;;;5090904;28;20192;-91
2023/12/19 08:52:44;;;;;;;9.93;6.83;;;4.60;94.80;;;;;;5091714;28;20652;-91
2023/12/19 08:55:12;;;;;;;6.90;4.63;;;5.20;95.10;;;;;;5071009;28;20216;-91
2023/12/19 08:57:41;;;;;;;3.30;2.20;;;5.70;93.10;;;;;;5090132;28;20565;-93
2023/12/19 09:00:13;;;;;;;2.80;2.22;;;5.80;90.70;;;;;;5087942;28;20573;-91
2023/12/19 09:02:42;;;;;;;5.72;3.47;;;5.70;91.90;;;;;;5088871;28;20204;-91
2023/12/19 09:05:10;;;;;;;4.60;3.47;;;6.20;92.60;;;;;;5089728;28;20307;-91
2023/12/19 09:07:37;;;;;;;4.40;2.50;;;6.60;91.90;;;;;;5069635;28;20200;-91
2023/12/19 09:10:05;;;;;;;4.57;2.50;;;6.90;86.60;;;;;;5077265;28;20211;-91
2023/12/19 09:12:32;;;;;;;3.60;2.50;;;7.00;87.90;;;;;;5070580;28;20200;-96
2023/12/19 09:15:00;;;;;;;3.75;2.92;;;7.30;88.50;;;;;;5076533;28;20203;-93
2023/12/19 09:17:28;;;;;;;2.80;2.40;;;8.20;84.90;;;;;;5048687;28;20204;-92
2023/12/19 09:19:56;;;;;;;3.30;2.53;;;8.80;71.60;;;;;;5072887;28;20212;-93
2023/12/19 09:22:23;;;;;;;5.10;2.50;;;9.40;56.10;;;;;;5085181;28;20215;-92
2023/12/19 09:24:50;;;;;;;5.90;2.42;;;9.90;48.30;;;;;;5085747;28;20203;-92
2023/12/19 09:27:17;;;;;;;4.43;2.80;;;10.40;39.40;;;;;;5087572;28;20192;-92
2023/12/19 09:29:44;;;;;;;5.65;2.00;;;11.00;33.20;;;;;;5082528;28;20596;-90
2023/12/19 09:32:12;;;;;;;2.80;2.00;;;11.70;28.00;;;;;;5069465;28;20445;-89
2023/12/19 09:34:40;;;;;;;2.83;2.08;;;12.40;23.00;;;;;;5069238;28;20208;-91
2023/12/19 09:37:07;;;;;;;3.40;3.10;;;13.10;21.30;;;;;;5068095;28;20789;-88
2023/12/19 09:39:34;;;;;;;2.35;2.05;;;13.40;20.10;;;;;;5066313;28;20235;-87
2023/12/19 09:42:02;;;;;;;1.92;1.77;;;13.80;19.10;;;;;;5085135;28;20215;-87
2023/12/19 09:44:30;;;;;;;3.50;1.90;;;13.80;18.30;;;;;;5088221;28;20993;-87
2023/12/19 09:46:56;;;;;;;1.85;1.75;;;13.70;18.50;;;;;;5083082;28;20199;-87
2023/12/19 09:49:25;;;;;;;2.40;1.70;;;13.80;16.30;;;;;;5067961;28;20204;-87
2023/12/19 09:51:55;;;;;;;3.53;1.85;;;13.60;16.10;;;;;;5085753;28;20206;-88
2023/12/19 09:54:23;;;;;;;1.83;1.63;;;13.60;16.80;;;;;;5089496;28;20228;-90
2023/12/19 09:56:52;;;;;;;1.60;1.50;;;13.10;17.30;;;;;;5083039;28;20204;-87
2023/12/19 09:59:20;;;;;;;2.70;1.58;;;12.60;17.00;;;;;;5069479;28;20262;-92
2023/12/19 10:01:47;;;;;;;2.58;1.95;;;12.10;18.00;;;;;;5089222;28;20193;-92
2023/12/19 10:04:16;;;;;;;2.60;1.70;;;11.90;20.20;;;;;;5085149;28;20225;-93
2023/12/19 10:06:56;;;;;;;2.72;1.50;;;11.70;18.80;;;;;;5086514;28;20205;-93
2023/12/19 10:09:23;;;;;;;1.80;1.50;;;11.20;19.10;;;;;;5084471;28;20208;-93
2023/12/19 10:12:04;;;;;;;2.65;1.90;;;10.90;20.40;;;;;;5067727;28;20205;-94
2023/12/19 10:14:32;;;;;;;3.38;2.22;;;10.60;21.90;;;;;;5082852;28;20193;-91
2023/12/19 10:16:59;;;;;;;2.53;2.20;;;10.50;22.10;;;;;;5087380;28;20501;-91
2023/12/19 10:19:28;;;;;;;3.28;1.80;;;10.60;24.10;;;;;;5083423;28;20242;-90
2023/12/19 10:22:05;;;;;;;2.45;1.83;;;10.70;24.20;;;;;;5087720;28;20242;-94
2023/12/19 10:24:32;;;;;;;3.75;1.90;;;11.00;22.50;;;;;;5088361;28;20566;-94
2023/12/19 10:27:00;;;;;;;7.00;1.90;;;11.10;22.60;;;;;;5088508;28;20207;-93
2023/12/19 10:29:28;;;;;;;6.15;2.15;;;11.30;19.30;;;;;;5094407;28;20254;-95
2023/12/19 10:31:58;;;;;;;3.78;1.70;;;11.50;20.00;;;;;;5089310;28;20210;-94
2023/12/19 10:34:25;;;;;;;5.18;1.83;;;11.80;19.20;;;;;;5090415;28;20204;-92
2023/12/19 10:36:52;;;;;;;2.67;1.60;;;12.20;18.80;;;;;;5072762;28;20199;-91
2023/12/19 10:39:20;;;;;;;2.50;1.90;;;12.30;18.60;;;;;;5088656;28;20225;-90
2023/12/19 10:41:47;;;;;;;2.10;1.50;;;12.50;17.70;;;;;;5068969;28;20200;-92
2023/12/19 10:44:15;;;;;;;4.97;1.65;;;12.80;16.50;;;;;;5071773;28;20193;-90
2023/12/19 10:46:43;;;;;;;3.55;1.58;;;13.30;14.90;;;;;;5074478;28;20200;-90
2023/12/19 10:49:10;;;;;;;1.95;1.55;;;13.50;15.20;;;;;;5088481;28;20200;-89
2023/12/19 10:51:41;;;;;;;5.13;1.83;;;13.60;13.70;;;;;;5087613;28;20205;-91
2023/12/19 10:54:10;;;;;;;2.33;1.50;;;13.90;13.40;;;;;;5093351;28;20659;-89
2023/12/19 10:57:02;;;;;;;3.30;1.60;;;14.00;12.40;;;;;;5092658;28;20196;-91
2023/12/19 10:59:32;;;;;;;2.35;1.52;;;14.00;12.10;;;;;;5061888;28;20306;-90
2023/12/19 11:04:33;;;;;;;6.53;1.55;;;13.80;11.80;;;;;;5072614;28;20287;-90
2023/12/19 11:07:03;;;;;;;2.28;1.30;;;13.80;11.50;;;;;;5071306;28;20190;-91
2023/12/19 11:09:34;;;;;;;3.38;1.35;;;13.50;11.50;;;;;;5042075;28;20530;-93
2023/12/19 11:12:05;;;;;;;2.40;1.38;;;13.20;10.90;;;;;;5135158;22;20233;-91
2023/12/19 11:14:32;;;;;;;1.20;1.10;;;12.80;11.40;;;;;;5054872;28;20205;-95
2023/12/19 11:17:07;;;;;;;5.40;1.13;;;12.60;10.90;;;;;;5060602;28;20197;-94
2023/12/19 11:19:44;;;;;;;4.60;1.67;;;12.40;12.00;;;;;;5049014;28;20564;-94
2023/12/19 11:22:16;;;;;;;34.17;22.95;;;12.10;11.40;;;;;;5070293;28;20216;-94
2023/12/19 11:24:50;;;;;;;5.70;2.78;;;12.00;14.30;;;;;;5058930;28;20193;-93
2023/12/19 11:27:23;;;;;;;2.42;1.65;;;12.10;11.90;;;;;;5050532;28;20613;-91
2023/12/19 11:29:53;;;;;;;1.85;1.40;;;11.90;11.40;;;;;;5064373;28;20212;-90
2023/12/19 11:32:43;;;;;;;7.55;3.42;;;11.90;11.30;;;;;;5042287;28;20201;-92
2023/12/19 11:35:16;;;;;;;4.10;2.25;;;11.90;11.80;;;;;;5067545;28;20201;-90
2023/12/19 11:37:56;;;;;;;1.50;1.30;;;12.00;10.20;;;;;;5077122;28;20197;-93
2023/12/19 11:40:49;;;;;;;8.90;5.00;;;12.00;12.10;;;;;;5072736;28;20677;-91
2023/12/19 11:43:48;;;;;;;3.55;2.75;;;11.90;13.00;;;;;;5068389;28;20254;-91
2023/12/19 11:46:22;;;;;;;3.53;1.60;;;11.80;11.40;;;;;;5067659;28;20626;-91
2023/12/19 11:48:50;;;;;;;2.72;2.08;;;11.90;10.90;;;;;;5037639;28;20993;-91
2023/12/19 11:51:50;;;;;;;2.38;1.02;;;11.90;10.80;;;;;;5046881;28;20205;-92
2023/12/19 11:54:19;;;;;;;1.27;1.10;;;11.90;11.70;;;;;;5068236;28;20675;-91
2023/12/19 11:56:57;;;;;;;4.45;3.22;;;11.80;12.00;;;;;;5058203;28;20292;-90
2023/12/19 11:59:25;;;;;;;3.35;1.30;;;11.90;11.50;;;;;;5071310;28;20212;-91
2023/12/19 12:01:54;;;;;;;2.45;1.50;;;12.00;10.40;;;;;;5069566;28;20213;-92
2023/12/19 12:06:57;;;;;;;3.97;1.10;;;11.90;10.50;;;;;;5101715;28;20223;-92
2023/12/19 12:09:25;;;;;;;2.15;1.20;;;11.90;10.30;;;;;;5087160;28;20193;-92
2023/12/19 12:11:52;;;;;;;5.38;1.20;;;11.90;10.10;;;;;;5102264;28;20197;-91
2023/12/19 12:14:20;;;;;;;2.00;1.30;;;11.90;10.40;;;;;;5077671;28;20242;-91
2023/12/19 12:16:47;;;;;;;3.70;1.50;;;11.90;11.20;;;;;;5091977;28;20598;-90
2023/12/19 12:19:30;;;;;;;0.77;0.70;;;11.80;12.30;;;;;;5113815;28;20191;-91
2023/12/19 12:22:07;;;;;;;1.10;1.00;;;11.80;11.30;;;;;;5099510;28;20248;-93
2023/12/19 12:24:48;;;;;;;1.92;1.00;;;11.80;11.10;;;;;;5109600;28;20212;-91
2023/12/19 12:27:23;;;;;;;0.88;0.70;;;11.80;11.00;;;;;;5106460;28;20192;-92
2023/12/19 12:40:06;;;;;;;3.85;1.20;;;11.80;11.60;;;;;;5018539;27;20227;-90
2023/12/19 12:46:27;;;;;;;3.22;1.05;;;12.00;10.60;;;;;;5106418;28;20192;-91
2023/12/19 12:52:43;;;;;;;3.40;2.28;;;12.10;10.10;;;;;;5102005;28;20226;-91
2023/12/19 12:55:19;;;;;;;6.03;1.77;;;12.10;10.90;;;;;;5110004;28;20277;-91
2023/12/19 13:01:02;;;;;;;5.72;1.40;;;12.10;11.00;;;;;;5102567;28;20227;-90
2023/12/19 13:03:32;;;;;;;3.10;1.25;;;12.20;10.60;;;;;;5093122;28;20211;-92
2023/12/19 13:06:10;;;;;;;1.30;0.98;;;12.20;10.80;;;;;;5062769;28;20205;-90
2023/12/19 13:12:36;;;;;;;1.83;1.30;;;12.60;9.10;;;;;;5094268;28;20234;-92
2023/12/19 13:15:31;;;;;;;1.25;0.88;;;12.60;9.10;;;;;;5092667;28;20207;-91
2023/12/19 13:33:38;;;;;;;4.43;1.30;;;12.20;11.40;;;;;;4936515;29;20229;-93
2023/12/19 14:02:33;;;;;;;4.38;1.33;;;11.20;15.70;;;;;;5062563;28;20178;-92
2023/12/19 14:05:02;;;;;;;1.58;1.38;;;11.10;16.00;;;;;;5072731;28;20416;-91
2023/12/19 14:07:29;;;;;;;2.20;1.40;;;11.00;16.20;;;;;;5068013;28;20254;-93
2023/12/19 14:10:04;;;;;;;2.65;1.30;;;11.00;16.10;;;;;;5072803;28;20193;-92
2023/12/19 14:12:33;;;;;;;2.75;1.40;;;10.90;16.40;;;;;;5067733;28;20226;-92
2023/12/19 14:15:00;;;;;;;1.52;1.20;;;10.80;16.30;;;;;;5048879;28;20194;-91